createdAt,value
2018-02-03T00:01:09.991Z,99559.19
2018-02-03T00:03:38.418Z,99543.97
2018-02-03T00:06:06.866Z,99550.95
2018-02-03T00:08:35.298Z,99567.72
2018-02-03T00:11:03.700Z,99559.18
2018-02-03T00:13:32.137Z,99557.77
2018-02-03T00:16:00.577Z,99547.61
2018-02-03T00:18:29.016Z,99553.24
2018-02-03T00:20:57.432Z,99540.98
2018-02-03T00:23:25.884Z,99553.84
2018-02-03T00:25:54.334Z,99561.78
2018-02-03T00:28:22.837Z,99554.70
2018-02-03T00:30:51.313Z,99537.81
2018-02-03T00:33:19.809Z,99538.25
2018-02-03T00:35:48.269Z,99531.53
2018-02-03T00:38:16.779Z,99519.73
2018-02-03T00:40:45.241Z,99499.79
2018-02-03T00:43:13.763Z,99508.11
2018-02-03T00:45:42.164Z,99509.27
2018-02-03T00:48:10.604Z,99510.41
2018-02-03T00:50:39.102Z,99492.59
2018-02-03T00:53:07.600Z,99488.89
2018-02-03T00:55:36.097Z,99476.28
2018-02-03T00:58:04.567Z,99481.58
2018-02-03T01:00:33.081Z,99483.53
2018-02-03T01:03:01.589Z,99491.94
2018-02-03T01:05:30.097Z,99508.22
2018-02-03T01:07:58.601Z,99509.45
2018-02-03T01:10:27.097Z,99494.88
2018-02-03T01:12:55.646Z,99502.50
2018-02-03T01:15:24.132Z,99496.01
2018-02-03T01:17:52.630Z,99466.68
2018-02-03T01:20:21.137Z,99459.78
2018-02-03T01:22:49.589Z,99445.95
2018-02-03T01:25:18.045Z,99444.75
2018-02-03T01:27:46.557Z,99449.69
2018-02-03T01:30:15.032Z,99441.64
2018-02-03T01:32:43.502Z,99422.16
2018-02-03T01:35:11.990Z,99426.66
2018-02-03T01:37:40.515Z,99445.20
2018-02-03T01:40:09.005Z,99441.23
2018-02-03T01:42:37.474Z,99429.44
2018-02-03T01:45:05.969Z,99426.42
2018-02-03T01:47:46.066Z,99416.80
2018-02-03T01:50:14.572Z,99398.86
2018-02-03T01:52:43.050Z,99416.13
2018-02-03T01:55:11.554Z,99414.23
2018-02-03T01:57:40.017Z,99413.78
2018-02-03T02:00:08.531Z,99402.83
2018-02-03T02:02:37.059Z,99394.55
2018-02-03T02:05:05.537Z,99383.74
2018-02-03T02:07:33.997Z,99387.83
2018-02-03T02:10:02.490Z,99380.03
2018-02-03T02:12:30.989Z,99383.69
2018-02-03T02:14:59.453Z,99386.88
2018-02-03T02:17:27.996Z,99366.60
2018-02-03T02:19:56.520Z,99356.13
2018-02-03T02:22:24.969Z,99376.38
2018-02-03T02:24:53.458Z,99383.56
2018-02-03T02:27:21.957Z,99365.38
2018-02-03T02:29:50.469Z,99377.92
2018-02-03T02:32:18.957Z,99392.52
2018-02-03T02:34:47.403Z,99394.21
2018-02-03T02:37:15.898Z,99391.31
2018-02-03T02:39:44.401Z,99397.72
2018-02-03T02:42:12.854Z,99398.73
2018-02-03T02:44:41.398Z,99396.59
2018-02-03T02:47:09.905Z,99387.56
2018-02-03T02:49:38.359Z,99387.62
2018-02-03T02:52:06.857Z,99385.63
2018-02-03T02:54:35.354Z,99384.39
2018-02-03T02:57:03.816Z,99389.72
2018-02-03T02:59:32.294Z,99397.17
2018-02-03T03:02:00.821Z,99377.80
2018-02-03T03:04:29.288Z,99378.28
2018-02-03T03:06:57.785Z,99405.63
2018-02-03T03:09:26.269Z,99392.52
2018-02-03T03:11:54.766Z,99378.75
2018-02-03T03:14:23.297Z,99397.82
2018-02-03T03:16:51.790Z,99404.81
2018-02-03T03:19:20.246Z,99405.28
2018-02-03T03:21:48.741Z,99400.13
2018-02-03T03:24:17.237Z,99400.92
2018-02-03T03:26:45.737Z,99379.11
2018-02-03T03:29:14.229Z,99391.48
2018-02-03T03:31:42.701Z,99388.32
2018-02-03T03:34:11.197Z,99401.08
2018-02-03T03:36:39.650Z,99390.94
2018-02-03T03:39:08.101Z,99391.02
2018-02-03T03:41:36.575Z,99394.73
2018-02-03T03:44:05.072Z,99391.67
2018-02-03T03:46:33.538Z,99389.39
2018-02-03T03:49:02.037Z,99389.84
2018-02-03T03:51:30.558Z,99364.40
2018-02-03T03:53:59.090Z,99385.09
2018-02-03T03:56:27.585Z,99391.69
2018-02-03T03:58:56.081Z,99399.03
2018-02-03T04:01:24.562Z,99395.09
2018-02-03T04:03:53.070Z,99392.75
2018-02-03T04:06:21.529Z,99405.64
2018-02-03T04:08:50.053Z,99406.77
2018-02-03T04:11:18.556Z,99394.73
2018-02-03T04:13:47.047Z,99394.53
2018-02-03T04:16:15.510Z,99393.60
2018-02-03T04:18:44.040Z,99389.52
2018-02-03T04:21:12.530Z,99390.03
2018-02-03T04:23:41.046Z,99384.86
2018-02-03T04:26:09.533Z,99385.52
2018-02-03T04:28:38.009Z,99379.00
2018-02-03T04:31:06.539Z,99389.75
2018-02-03T04:33:35.049Z,99396.98
2018-02-03T04:36:03.505Z,99388.17
2018-02-03T04:38:32.010Z,99363.98
2018-02-03T04:41:00.506Z,99372.00
2018-02-03T04:43:29.006Z,99363.14
2018-02-03T04:45:57.457Z,99367.19
2018-02-03T04:48:25.971Z,99355.20
2018-02-03T04:50:54.425Z,99349.03
2018-02-03T04:53:22.886Z,99363.97
2018-02-03T04:55:51.404Z,99359.00
2018-02-03T04:58:20.609Z,99357.84
2018-02-03T05:00:49.102Z,99355.36
2018-02-03T05:03:17.633Z,99353.61
2018-02-03T05:05:46.121Z,99362.98
2018-02-03T05:08:14.614Z,99341.95
2018-02-03T05:10:43.124Z,99344.15
2018-02-03T05:13:11.607Z,99350.63
2018-02-03T05:15:40.109Z,99353.16
2018-02-03T05:18:08.605Z,99336.14
2018-02-03T05:20:37.057Z,99333.38
2018-02-03T05:23:05.552Z,99314.27
2018-02-03T05:25:34.041Z,99295.28
2018-02-03T05:28:02.498Z,99315.25
2018-02-03T05:30:31.025Z,99296.27
2018-02-03T05:32:59.537Z,99296.97
2018-02-03T05:35:28.017Z,99335.34
2018-02-03T05:37:56.537Z,99322.06
2018-02-03T05:40:25.065Z,99285.11
2018-02-03T05:42:53.636Z,99297.02
2018-02-03T05:45:23.001Z,99294.56
2018-02-03T05:47:51.562Z,99286.17
2018-02-03T05:50:20.014Z,99299.84
2018-02-03T05:52:48.590Z,99288.61
2018-02-03T05:55:17.026Z,99288.27
2018-02-03T05:57:45.477Z,99290.11
2018-02-03T06:00:13.977Z,99298.71
2018-02-03T06:02:42.433Z,99298.53
2018-02-03T06:05:10.890Z,99301.17
2018-02-03T06:07:39.391Z,99297.98
2018-02-03T06:10:07.889Z,99300.42
2018-02-03T06:12:36.355Z,99304.80
2018-02-03T06:15:04.869Z,99300.09
2018-02-03T06:17:33.332Z,99305.60
2018-02-03T06:20:01.792Z,99288.68
2018-02-03T06:22:30.297Z,99287.28
2018-02-03T06:24:58.796Z,99289.86
2018-02-03T06:27:27.311Z,99286.55
2018-02-03T06:29:55.795Z,99290.01
2018-02-03T06:32:24.245Z,99293.88
2018-02-03T06:34:52.777Z,99296.99
2018-02-03T06:37:21.259Z,99274.80
2018-02-03T06:39:49.769Z,99291.16
2018-02-03T06:42:18.246Z,99287.59
2018-02-03T06:44:46.740Z,99261.28
2018-02-03T06:47:15.230Z,99251.50
2018-02-03T06:49:43.753Z,99238.20
2018-02-03T06:52:12.279Z,99226.10
2018-02-03T06:54:40.753Z,99225.59
2018-02-03T06:57:09.249Z,99242.92
2018-02-03T06:59:37.773Z,99244.48
2018-02-03T07:02:06.279Z,99227.61
2018-02-03T07:04:34.783Z,99228.13
2018-02-03T07:07:03.251Z,99234.44
2018-02-03T07:09:31.773Z,99215.39
2018-02-03T07:12:00.315Z,99199.50
2018-02-03T07:14:28.814Z,99223.67
2018-02-03T07:16:57.306Z,99243.30
2018-02-03T07:19:25.762Z,99236.18
2018-02-03T07:21:54.263Z,99247.22
2018-02-03T07:24:22.802Z,99224.59
2018-02-03T07:26:51.261Z,99227.22
2018-02-03T07:29:19.833Z,99219.36
2018-02-03T07:31:48.333Z,99203.71
2018-02-03T07:34:16.815Z,99228.80
2018-02-03T07:36:45.338Z,99224.25
2018-02-03T07:39:13.819Z,99209.41
2018-02-03T07:41:42.305Z,99214.85
2018-02-03T07:44:10.779Z,99202.47
2018-02-03T07:46:39.325Z,99218.70
2018-02-03T07:49:07.782Z,99203.71
2018-02-03T07:51:36.277Z,99192.08
2018-02-03T07:54:04.753Z,99199.13
2018-02-03T07:56:33.321Z,99205.25
2018-02-03T07:59:01.785Z,99191.50
2018-02-03T08:01:30.266Z,99190.70
2018-02-03T08:03:58.767Z,99206.42
2018-02-03T08:06:27.230Z,99180.47
2018-02-03T08:08:55.742Z,99153.13
2018-02-03T08:11:24.227Z,99157.29
2018-02-03T08:13:52.688Z,99148.02
2018-02-03T08:16:21.198Z,99171.52
2018-02-03T08:18:49.677Z,99157.97
2018-02-03T08:21:18.170Z,99160.28
2018-02-03T08:23:46.685Z,99178.63
2018-02-03T08:26:15.230Z,99162.16
2018-02-03T08:28:43.699Z,99156.02
2018-02-03T08:31:12.197Z,99142.52
2018-02-03T08:33:40.660Z,99130.95
2018-02-03T08:36:09.139Z,99147.91
2018-02-03T08:38:37.649Z,99157.92
2018-02-03T08:41:06.144Z,99158.76
2018-02-03T08:43:34.606Z,99133.98
2018-02-03T08:46:03.200Z,99126.77
2018-02-03T08:48:31.701Z,99125.81
2018-02-03T08:51:00.209Z,99128.39
2018-02-03T08:53:28.703Z,99146.03
2018-02-03T08:55:57.213Z,99143.70
2018-02-03T08:58:25.730Z,99114.95
2018-02-03T09:00:54.229Z,99126.91
2018-02-03T09:03:22.737Z,99153.22
2018-02-03T09:05:51.231Z,99143.31
2018-02-03T09:08:19.690Z,99132.30
2018-02-03T09:10:48.162Z,99143.38
2018-02-03T09:13:16.672Z,99122.66
2018-02-03T09:15:45.174Z,99107.92
2018-02-03T09:18:13.725Z,99113.58
2018-02-03T09:20:42.235Z,99102.74
2018-02-03T09:23:10.754Z,99105.33
2018-02-03T09:25:39.217Z,99111.66
2018-02-03T09:28:07.720Z,99081.39
2018-02-03T09:30:36.209Z,99087.19
2018-02-03T09:33:04.705Z,99091.17
2018-02-03T09:35:33.210Z,99077.27
2018-02-03T09:38:01.719Z,99073.52
2018-02-03T09:40:30.231Z,99074.73
2018-02-03T09:42:58.704Z,99069.22
2018-02-03T09:45:27.238Z,99063.70
2018-02-03T09:47:55.711Z,99070.43
2018-02-03T09:50:24.205Z,99055.73
2018-02-03T09:52:52.739Z,99061.86
2018-02-03T09:55:21.230Z,99050.89
2018-02-03T09:57:49.725Z,99033.59
2018-02-03T10:00:18.215Z,99018.23
2018-02-03T10:02:46.654Z,99016.63
2018-02-03T10:05:15.102Z,99012.66
2018-02-03T10:07:43.625Z,99019.84
2018-02-03T10:10:12.087Z,99025.01
2018-02-03T10:12:40.613Z,99020.11
2018-02-03T10:15:09.073Z,99008.78
2018-02-03T10:17:37.622Z,98990.00
2018-02-03T10:20:06.100Z,98974.58
2018-02-03T10:22:34.599Z,98971.14
2018-02-03T10:25:03.093Z,98959.24
2018-02-03T10:27:31.568Z,98962.11
2018-02-03T10:30:00.089Z,98953.70
2018-02-03T10:32:28.600Z,98950.65
2018-02-03T10:34:57.093Z,98944.00
2018-02-03T10:37:25.554Z,98956.81
2018-02-03T10:39:54.088Z,98971.47
2018-02-03T10:42:22.550Z,98972.75
2018-02-03T10:44:51.049Z,98965.50
2018-02-03T10:47:19.545Z,98950.81
2018-02-03T10:49:48.086Z,98921.80
2018-02-03T10:52:16.550Z,98923.77
2018-02-03T10:54:45.031Z,98945.12
2018-02-03T10:57:13.539Z,98953.02
2018-02-03T10:59:42.057Z,98934.77
2018-02-03T11:02:10.546Z,98894.80
2018-02-03T11:04:39.012Z,98904.34
2018-02-03T11:07:07.510Z,98882.41
2018-02-03T11:09:36.010Z,98876.57
2018-02-03T11:12:04.498Z,98883.55
2018-02-03T11:14:32.970Z,98862.17
2018-02-03T11:17:01.540Z,98848.46
2018-02-03T11:19:30.007Z,98859.22
2018-02-03T11:21:58.581Z,98864.32
2018-02-03T11:24:27.053Z,98841.59
2018-02-03T11:26:55.569Z,98843.77
2018-02-03T11:29:24.025Z,98855.47
2018-02-03T11:31:52.490Z,98860.66
2018-02-03T11:34:20.994Z,98838.22
2018-02-03T11:36:49.473Z,98834.42
2018-02-03T11:39:17.985Z,98840.21
2018-02-03T11:41:46.477Z,98844.10
2018-02-03T11:44:15.005Z,98833.90
2018-02-03T11:46:43.525Z,98835.84
2018-02-03T11:49:12.042Z,98821.31
2018-02-03T11:51:40.550Z,98859.38
2018-02-03T11:54:09.008Z,98860.84
2018-02-03T11:56:37.509Z,98858.02
2018-02-03T11:59:05.991Z,98838.30
2018-02-03T12:01:34.517Z,98849.17
2018-02-03T12:04:03.032Z,98873.36
2018-02-03T12:06:31.500Z,98854.36
2018-02-03T12:08:59.993Z,98852.31
2018-02-03T12:11:28.453Z,98843.81
2018-02-03T12:13:56.932Z,98852.16
2018-02-03T12:16:25.434Z,98837.48
2018-02-03T12:18:53.948Z,98812.61
2018-02-03T12:21:22.401Z,98809.48
2018-02-03T12:23:50.901Z,98804.45
2018-02-03T12:26:19.424Z,98820.97
2018-02-03T12:28:47.969Z,98808.35
2018-02-03T12:31:16.463Z,98804.70
2018-02-03T12:33:44.913Z,98812.24
2018-02-03T12:36:14.305Z,98803.23
2018-02-03T12:38:42.816Z,98785.54
2018-02-03T12:41:11.309Z,98787.70
2018-02-03T12:43:39.817Z,98786.98
2018-02-03T12:46:08.286Z,98780.69
2018-02-03T12:48:36.823Z,98772.55
2018-02-03T12:51:05.325Z,98771.63
2018-02-03T12:53:33.795Z,98770.94
2018-02-03T12:56:02.251Z,98760.62
2018-02-03T12:58:30.784Z,98766.30
2018-02-03T13:00:59.301Z,98770.48
2018-02-03T13:03:27.813Z,98763.22
2018-02-03T13:05:56.338Z,98754.23
2018-02-03T13:08:24.839Z,98748.75
2018-02-03T13:10:53.349Z,98755.73
2018-02-03T13:13:21.834Z,98761.53
2018-02-03T13:15:50.325Z,98768.48
2018-02-03T13:18:18.814Z,98765.30
2018-02-03T13:20:47.325Z,98791.72
2018-02-03T13:23:15.801Z,98785.05
2018-02-03T13:25:44.301Z,98761.77
2018-02-03T13:28:12.795Z,98741.91
2018-02-03T13:30:41.261Z,98750.98
2018-02-03T13:33:09.779Z,98753.63
2018-02-03T13:35:38.248Z,98779.84
2018-02-03T13:38:06.741Z,98774.73
2018-02-03T13:40:35.217Z,98772.65
2018-02-03T13:43:03.722Z,98750.67
2018-02-03T13:45:32.262Z,98763.36
2018-02-03T13:48:00.735Z,98745.85
2018-02-03T13:50:29.241Z,98744.60
2018-02-03T13:52:57.749Z,98753.28
2018-02-03T13:55:26.245Z,98742.27
2018-02-03T13:57:54.705Z,98739.67
2018-02-03T14:00:23.223Z,98756.64
2018-02-03T14:02:51.694Z,98749.94
2018-02-03T14:05:20.153Z,98751.14
2018-02-03T14:07:48.621Z,98742.93
2018-02-03T14:10:17.154Z,98746.61
2018-02-03T14:12:45.647Z,98734.58
2018-02-03T14:15:14.114Z,98731.17
2018-02-03T14:17:42.578Z,98722.86
2018-02-03T14:20:11.081Z,98706.64
2018-02-03T14:22:39.594Z,98716.66
2018-02-03T14:25:08.907Z,98720.47
2018-02-03T14:27:37.428Z,98717.50
2018-02-03T14:30:05.927Z,98715.20
2018-02-03T14:32:34.429Z,98697.70
2018-02-03T14:35:02.971Z,98697.95
2018-02-03T14:37:31.473Z,98692.91
2018-02-03T14:39:59.952Z,98684.91
2018-02-03T14:42:28.459Z,98670.86
2018-02-03T14:44:56.917Z,98662.38
2018-02-03T14:47:25.422Z,98676.70
2018-02-03T14:49:53.918Z,98675.72
2018-02-03T14:52:22.369Z,98667.19
2018-02-03T14:54:50.862Z,98655.38
2018-02-03T14:57:19.357Z,98661.89
2018-02-03T14:59:47.857Z,98655.35
2018-02-03T15:02:16.358Z,98651.08
2018-02-03T15:04:44.817Z,98645.50
2018-02-03T15:07:13.264Z,98666.05
2018-02-03T15:09:41.761Z,98682.05
2018-02-03T15:12:10.245Z,98686.83
2018-02-03T15:14:38.708Z,98687.63
2018-02-03T15:17:07.191Z,98673.45
2018-02-03T15:19:35.653Z,98682.45
2018-02-03T15:22:04.123Z,98689.89
2018-02-03T15:24:32.606Z,98693.34
2018-02-03T15:27:01.105Z,98700.12
2018-02-03T15:29:29.585Z,98689.37
2018-02-03T15:31:58.050Z,98697.09
2018-02-03T15:34:26.553Z,98691.56
2018-02-03T15:36:54.995Z,98675.33
2018-02-03T15:39:23.500Z,98685.97
2018-02-03T15:41:52.017Z,98707.58
2018-02-03T15:44:20.496Z,98722.45
2018-02-03T15:46:49.009Z,98709.84
2018-02-03T15:49:17.505Z,98702.03
2018-02-03T15:51:45.965Z,98700.50
2018-02-03T15:54:14.465Z,98720.77
2018-02-03T15:56:42.972Z,98709.84
2018-02-03T15:59:11.458Z,98709.77
2018-02-03T16:01:39.927Z,98725.27
2018-02-03T16:04:08.434Z,98727.80
2018-02-03T16:06:36.954Z,98705.27
2018-02-03T16:09:05.430Z,98709.89
2018-02-03T16:11:33.885Z,98697.41
2018-02-03T16:14:02.381Z,98707.63
2018-02-03T16:16:30.894Z,98712.28
2018-02-03T16:18:59.357Z,98706.69
2018-02-03T16:21:27.879Z,98711.02
2018-02-03T16:23:56.379Z,98728.13
2018-02-03T16:26:24.844Z,98705.34
2018-02-03T16:28:53.367Z,98676.78
2018-02-03T16:31:21.871Z,98699.89
2018-02-03T16:33:50.367Z,98714.60
2018-02-03T16:36:18.829Z,98706.75
2018-02-03T16:38:47.343Z,98696.86
2018-02-03T16:41:15.813Z,98676.03
2018-02-03T16:43:44.321Z,98702.02
2018-02-03T16:46:12.782Z,98693.30
2018-02-03T16:48:41.250Z,98675.84
2018-02-03T16:51:09.773Z,98706.37
2018-02-03T16:53:38.322Z,98709.02
2018-02-03T16:56:06.766Z,98699.82
2018-02-03T16:58:35.298Z,98715.27
2018-02-03T17:01:03.797Z,98715.12
2018-02-03T17:03:32.281Z,98711.10
2018-02-03T17:06:00.810Z,98719.25
2018-02-03T17:08:29.275Z,98745.59
2018-02-03T17:13:32.442Z,98730.49
2018-02-03T17:16:00.945Z,98739.75
2018-02-03T17:18:29.449Z,98708.49
2018-02-03T17:20:57.968Z,98677.75
2018-02-03T17:23:26.505Z,98698.47
2018-02-03T17:25:55.046Z,98704.05
2018-02-03T17:28:23.549Z,98710.67
2018-02-03T17:30:52.003Z,98730.97
2018-02-03T17:33:20.495Z,98724.27
2018-02-03T17:35:49.030Z,98719.89
2018-02-03T17:38:23.015Z,98704.89
2018-02-03T17:40:51.511Z,98699.39
2018-02-03T17:43:20.045Z,98687.52
2018-02-03T17:45:53.981Z,98687.27
2018-02-03T17:48:22.486Z,98709.26
2018-02-03T17:50:50.989Z,98731.97
2018-02-03T17:53:19.504Z,98735.91
2018-02-03T17:55:53.409Z,98724.70
2018-02-03T17:58:21.993Z,98719.03
2018-02-03T18:00:50.490Z,98730.81
2018-02-03T18:03:18.953Z,98739.09
2018-02-03T18:05:47.445Z,98741.31
2018-02-03T18:08:15.908Z,98739.09
2018-02-03T18:10:44.410Z,98723.74
2018-02-03T18:13:12.949Z,98709.95
2018-02-03T18:15:41.450Z,98691.30
2018-02-03T18:18:09.910Z,98717.07
2018-02-03T18:20:38.394Z,98727.36
2018-02-03T18:23:06.910Z,98731.30
2018-02-03T18:25:35.409Z,98727.42
2018-02-03T18:28:03.872Z,98716.72
2018-02-03T18:30:32.404Z,98742.73
2018-02-03T18:33:00.867Z,98726.94
2018-02-03T18:35:29.365Z,98666.82
2018-02-03T18:37:57.833Z,98678.84
2018-02-03T18:40:26.384Z,98680.05
2018-02-03T18:42:54.849Z,98687.27
2018-02-03T18:45:47.009Z,98658.78
2018-02-03T18:48:15.482Z,98674.42
2018-02-03T18:50:43.998Z,98666.00
2018-02-03T18:53:12.454Z,98672.03
2018-02-03T18:55:40.913Z,98669.84
2018-02-03T18:58:09.405Z,98668.72
2018-02-03T19:00:37.885Z,98659.03
2018-02-03T19:03:06.410Z,98678.94
2018-02-03T19:05:34.887Z,98676.99
2018-02-03T19:08:03.399Z,98650.08
2018-02-03T19:10:31.858Z,98650.66
2018-02-03T19:13:00.349Z,98661.88
2018-02-03T19:15:28.863Z,98669.66
2018-02-03T19:17:57.358Z,98659.86
2018-02-03T19:20:25.906Z,98661.59
2018-02-03T19:22:54.382Z,98668.17
2018-02-03T19:25:22.874Z,98677.12
2018-02-03T19:27:51.412Z,98679.13
2018-02-03T19:30:19.902Z,98699.58
2018-02-03T19:32:48.354Z,98715.25
2018-02-03T19:35:16.863Z,98692.70
2018-02-03T19:37:45.314Z,98668.70
2018-02-03T19:40:13.805Z,98666.74
2018-02-03T19:42:42.270Z,98672.97
2018-02-03T19:45:10.763Z,98652.19
2018-02-03T19:47:39.245Z,98654.96
2018-02-03T19:50:07.697Z,98687.80
2018-02-03T19:52:36.161Z,98695.67
2018-02-03T19:55:04.709Z,98670.61
2018-02-03T19:57:33.177Z,98649.98
2018-02-03T20:00:01.674Z,98668.00
2018-02-03T20:02:30.169Z,98656.17
2018-02-03T20:04:58.678Z,98629.25
2018-02-03T20:07:27.118Z,98646.17
2018-02-03T20:09:55.633Z,98638.70
2018-02-03T20:12:24.116Z,98631.58
2018-02-03T20:14:52.633Z,98625.16
2018-02-03T20:17:21.137Z,98637.17
2018-02-03T20:19:49.662Z,98639.25
2018-02-03T20:22:18.157Z,98610.34
2018-02-03T20:24:46.629Z,98629.70
2018-02-03T20:27:15.186Z,98627.16
2018-02-03T20:29:43.646Z,98616.76
2018-02-03T20:32:12.106Z,98632.45
2018-02-03T20:34:40.598Z,98641.09
2018-02-03T20:37:09.106Z,98643.80
2018-02-03T20:39:37.563Z,98640.29
2018-02-03T20:42:06.061Z,98662.58
2018-02-03T20:44:34.593Z,98650.09
2018-02-03T20:47:03.062Z,98618.09
2018-02-03T20:49:31.578Z,98626.88
2018-02-03T20:52:00.128Z,98623.56
2018-02-03T20:54:28.590Z,98631.03
2018-02-03T20:56:57.085Z,98625.33
2018-02-03T20:59:25.555Z,98600.14
2018-02-03T21:01:54.020Z,98611.81
2018-02-03T21:04:22.462Z,98611.01
2018-02-03T21:06:50.945Z,98616.07
2018-02-03T21:09:19.429Z,98618.34
2018-02-03T21:11:47.868Z,98621.41
2018-02-03T21:14:16.399Z,98611.00
2018-02-03T21:16:44.853Z,98611.67
2018-02-03T21:19:13.349Z,98607.20
2018-02-03T21:21:41.794Z,98599.30
2018-02-03T21:24:10.300Z,98615.23
2018-02-03T21:26:38.761Z,98606.41
2018-02-03T21:29:07.249Z,98605.82
2018-02-03T21:31:35.710Z,98623.88
2018-02-03T21:34:04.190Z,98601.81
2018-02-03T21:36:32.690Z,98599.45
2018-02-03T21:39:01.205Z,98584.52
2018-02-03T21:41:29.718Z,98584.84
2018-02-03T21:43:58.191Z,98576.61
2018-02-03T21:46:26.686Z,98561.09
2018-02-03T21:48:55.180Z,98566.59
2018-02-03T21:51:23.666Z,98572.97
2018-02-03T21:53:52.113Z,98567.25
2018-02-03T21:56:20.598Z,98557.09
2018-02-03T21:58:49.057Z,98582.55
2018-02-03T22:01:17.545Z,98589.61
2018-02-03T22:03:46.033Z,98598.17
2018-02-03T22:06:14.493Z,98620.01
2018-02-03T22:08:43.007Z,98612.83
2018-02-03T22:11:11.525Z,98610.12
2018-02-03T22:13:40.025Z,98604.59
2018-02-03T22:16:08.539Z,98628.49
2018-02-03T22:18:37.005Z,98625.73
2018-02-03T22:21:05.512Z,98626.77
2018-02-03T22:23:34.028Z,98605.49
2018-02-03T22:26:02.521Z,98602.25
2018-02-03T22:28:30.970Z,98616.48
2018-02-03T22:30:59.456Z,98612.88
2018-02-03T22:33:27.909Z,98611.84
2018-02-03T22:35:56.432Z,98600.04
2018-02-03T22:38:24.954Z,98590.73
2018-02-03T22:40:53.424Z,98598.64
2018-02-03T22:43:21.913Z,98609.23
2018-02-03T22:45:50.362Z,98610.03
2018-02-03T22:48:18.850Z,98595.23
2018-02-03T22:50:47.345Z,98596.88
2018-02-03T22:53:15.793Z,98604.00
2018-02-03T22:55:44.305Z,98601.30
2018-02-03T22:58:12.761Z,98601.27
2018-02-03T23:00:41.270Z,98619.20
2018-02-03T23:03:09.807Z,98606.14
2018-02-03T23:05:38.249Z,98593.53
2018-02-03T23:08:06.746Z,98595.05
2018-02-03T23:10:35.254Z,98585.58
2018-02-03T23:13:03.706Z,98580.84
2018-02-03T23:15:32.214Z,98593.78
2018-02-03T23:18:02.762Z,98592.58
2018-02-03T23:20:31.346Z,98611.00
2018-02-03T23:22:59.873Z,98618.24
2018-02-03T23:25:28.322Z,98620.72
2018-02-03T23:27:56.815Z,98613.51
2018-02-03T23:30:25.666Z,98603.69
2018-02-03T23:32:54.158Z,98587.22
2018-02-03T23:35:22.650Z,98603.09
2018-02-03T23:37:51.122Z,98600.40
2018-02-03T23:40:19.578Z,98597.34
2018-02-03T23:42:48.066Z,98580.28
2018-02-03T23:45:16.522Z,98564.47
2018-02-03T23:47:45.042Z,98590.03
2018-02-03T23:50:13.549Z,98595.02
2018-02-03T23:52:42.005Z,98583.29
2018-02-03T23:55:10.458Z,98594.80
2018-02-03T23:57:38.932Z,98588.34
